Time;durP1;ratioP1;P1;durP2;ratioP2;P2;SDS_P1;SDS_P2;PMS_P1;PMS_P2;Temp;Humidity;BMP_temperature;BMP_pressure;BME280_temperature;BME280_humidity;BME280_pressure;Samples;Min_cycle;Max_cycle;Signal;HPM_P1;HPM_P2
2021/01/30 00:02:05;;;;;;;18.63;11.00;;;1.30;96.80;;;;;;5058687;28;20025;-68
2021/01/30 00:04:30;;;;;;;19.33;10.63;;;1.30;96.80;;;;;;5053418;28;20032;-68
2021/01/30 00:06:57;;;;;;;19.58;10.65;;;1.20;96.80;;;;;;5066503;28;20380;-68
2021/01/30 00:09:25;;;;;;;21.45;12.18;;;1.20;97.00;;;;;;5069530;28;20496;-68
2021/01/30 00:11:53;;;;;;;21.65;11.80;;;1.20;97.10;;;;;;5063031;28;20028;-68
2021/01/30 00:14:24;;;;;;;20.20;11.25;;;1.10;97.00;;;;;;5069782;28;20064;-68
2021/01/30 00:16:51;;;;;;;20.92;11.70;;;1.20;97.00;;;;;;5047194;28;20374;-67
2021/01/30 00:19:17;;;;;;;21.85;12.38;;;1.20;97.20;;;;;;5053233;28;20049;-68
2021/01/30 00:21:50;;;;;;;20.98;12.00;;;1.20;97.20;;;;;;5061523;28;20037;-68
2021/01/30 00:24:15;;;;;;;21.30;11.00;;;1.20;97.10;;;;;;5063501;28;20032;-68
2021/01/30 00:26:41;;;;;;;22.98;13.50;;;1.20;96.90;;;;;;5052338;28;20485;-68
2021/01/30 00:29:06;;;;;;;20.23;11.95;;;1.20;97.20;;;;;;5053035;28;20036;-68
2021/01/30 00:31:32;;;;;;;19.25;11.90;;;1.10;97.40;;;;;;5065806;28;20024;-68
2021/01/30 00:33:57;;;;;;;23.00;11.95;;;1.10;97.30;;;;;;5050494;28;20540;-67
2021/01/30 00:36:23;;;;;;;19.70;11.43;;;1.00;97.30;;;;;;5060802;28;20028;-68
2021/01/30 00:38:52;;;;;;;24.80;12.27;;;1.00;97.60;;;;;;5055979;28;20115;-68
2021/01/30 00:41:17;;;;;;;20.95;11.63;;;1.00;97.90;;;;;;5042744;28;20409;-67
2021/01/30 00:43:42;;;;;;;22.38;12.15;;;0.90;98.10;;;;;;5054013;28;20104;-67
2021/01/30 00:46:08;;;;;;;21.02;12.40;;;0.90;97.90;;;;;;5051953;28;20029;-67
2021/01/30 00:48:33;;;;;;;24.13;12.88;;;0.80;97.80;;;;;;5063023;28;20095;-68
2021/01/30 00:50:59;;;;;;;19.08;11.68;;;0.80;98.00;;;;;;5052121;28;20056;-67
2021/01/30 00:53:24;;;;;;;24.17;11.73;;;0.90;97.80;;;;;;5052804;28;20075;-67
2021/01/30 00:55:50;;;;;;;23.02;11.57;;;0.80;98.20;;;;;;5052205;28;20175;-67
2021/01/30 00:58:15;;;;;;;24.13;11.98;;;0.80;97.90;;;;;;5062917;28;20021;-66
2021/01/30 01:00:41;;;;;;;22.60;12.63;;;0.70;98.20;;;;;;5050149;28;20029;-67
2021/01/30 01:03:06;;;;;;;21.88;12.93;;;0.80;98.50;;;;;;5065310;28;20388;-67
2021/01/30 01:05:32;;;;;;;25.80;12.98;;;0.70;98.30;;;;;;5059264;28;20032;-67
2021/01/30 01:07:57;;;;;;;26.42;13.88;;;0.70;98.20;;;;;;5051753;28;20456;-67
2021/01/30 01:10:24;;;;;;;26.77;13.93;;;0.70;98.30;;;;;;5050806;28;20043;-67
2021/01/30 01:12:49;;;;;;;26.88;14.23;;;0.70;98.80;;;;;;5070921;28;20481;-67
2021/01/30 01:15:17;;;;;;;25.60;12.52;;;0.60;98.50;;;;;;5059398;28;20032;-67
2021/01/30 01:17:43;;;;;;;26.02;15.00;;;0.60;98.70;;;;;;5052641;28;20038;-67
2021/01/30 01:20:14;;;;;;;22.17;13.85;;;0.60;98.70;;;;;;5051515;28;20040;-67
2021/01/30 01:22:39;;;;;;;26.92;14.10;;;0.60;98.70;;;;;;5052306;28;20029;-68
2021/01/30 01:25:05;;;;;;;23.15;13.02;;;0.60;98.70;;;;;;5050009;28;20108;-68
2021/01/30 01:27:31;;;;;;;27.52;14.27;;;0.60;98.90;;;;;;5053198;28;20032;-68
2021/01/30 01:29:56;;;;;;;20.98;13.07;;;0.60;98.90;;;;;;5050146;28;20519;-68
2021/01/30 01:32:25;;;;;;;27.58;13.48;;;0.60;98.80;;;;;;5066274;28;20543;-68
2021/01/30 01:34:51;;;;;;;26.40;13.40;;;0.70;98.70;;;;;;5063986;28;20035;-69
2021/01/30 01:37:17;;;;;;;22.83;14.20;;;0.70;99.00;;;;;;5053079;28;20374;-69
2021/01/30 01:39:42;;;;;;;23.90;11.73;;;0.70;98.70;;;;;;5050651;28;20025;-69
2021/01/30 01:42:20;;;;;;;18.17;9.80;;;0.70;98.70;;;;;;5050857;28;20497;-69
2021/01/30 01:44:47;;;;;;;17.67;10.93;;;0.60;98.60;;;;;;5054915;28;20028;-69
2021/01/30 01:47:30;;;;;;;22.00;11.60;;;0.60;98.60;;;;;;5052534;28;20044;-69
2021/01/30 01:50:01;;;;;;;24.45;12.77;;;0.60;98.50;;;;;;5053638;28;20104;-69
2021/01/30 01:52:36;;;;;;;20.63;11.50;;;0.70;98.40;;;;;;5052537;28;20028;-69
2021/01/30 01:55:07;;;;;;;;;;;0.60;98.50;;;;;;5053506;28;20021;-69
2021/01/30 01:57:34;;;;;;;18.80;11.55;;;0.60;98.60;;;;;;5068017;28;19962;-69
2021/01/30 02:00:00;;;;;;;19.77;11.07;;;0.60;98.40;;;;;;5058172;28;20045;-68
2021/01/30 02:02:31;;;;;;;19.40;10.95;;;0.60;98.40;;;;;;5052341;28;20139;-68
2021/01/30 02:05:07;;;;;;;21.45;12.65;;;0.70;98.50;;;;;;5051081;28;20079;-69
2021/01/30 02:07:38;;;;;;;20.15;11.63;;;0.70;98.40;;;;;;5050858;28;20025;-67
2021/01/30 02:10:06;;;;;;;19.25;11.98;;;0.60;98.40;;;;;;5050298;28;20033;-67
2021/01/30 02:12:32;;;;;;;18.45;10.18;;;0.70;98.50;;;;;;5051961;28;20432;-68
2021/01/30 02:14:57;;;;;;;18.58;9.80;;;0.60;98.50;;;;;;5053455;28;20029;-67
2021/01/30 02:17:42;;;;;;;12.48;6.93;;;0.60;98.30;;;;;;5031907;28;20476;-68
2021/01/30 02:20:45;;;;;;;12.00;7.20;;;0.60;98.20;;;;;;5056964;28;20037;-67
2021/01/30 02:23:49;;;;;;;13.52;6.60;;;0.50;98.10;;;;;;5053008;28;20279;-68
2021/01/30 02:26:44;;;;;;;14.80;8.18;;;0.60;98.20;;;;;;5051789;28;20179;-66
2021/01/30 02:29:47;;;;;;;15.00;8.65;;;0.60;98.30;;;;;;5057725;28;20044;-66
2021/01/30 02:32:41;;;;;;;15.18;8.98;;;0.60;98.20;;;;;;5050161;28;20037;-66
2021/01/30 02:35:19;;;;;;;17.00;8.80;;;0.50;98.50;;;;;;5050725;28;20021;-66
2021/01/30 02:37:52;;;;;;;15.15;8.95;;;0.60;98.30;;;;;;5051935;28;20051;-66
2021/01/30 02:40:21;;;;;;;16.70;9.52;;;0.60;98.50;;;;;;5049220;28;20038;-66
2021/01/30 02:43:05;;;;;;;15.48;8.93;;;0.60;98.20;;;;;;5063771;28;20039;-66
2021/01/30 02:45:34;;;;;;;20.48;10.40;;;0.60;98.20;;;;;;5050721;28;20033;-67
2021/01/30 02:48:08;;;;;;;16.55;9.23;;;0.70;98.30;;;;;;5064281;28;20037;-66
2021/01/30 02:50:45;;;;;;;13.95;8.55;;;0.60;98.30;;;;;;5051657;28;20104;-67
2021/01/30 02:53:13;;;;;;;13.35;9.57;;;0.60;98.30;;;;;;5067241;28;20116;-66
2021/01/30 02:55:39;;;;;;;18.73;11.25;;;0.60;98.50;;;;;;5049990;28;20052;-66
2021/01/30 02:58:06;;;;;;;18.17;10.48;;;0.60;98.40;;;;;;5065040;28;20106;-67
2021/01/30 03:00:33;;;;;;;18.30;10.63;;;0.60;98.30;;;;;;5051563;28;20045;-67
2021/01/30 03:02:59;;;;;;;18.52;10.57;;;0.60;98.50;;;;;;5064054;28;20035;-67
2021/01/30 03:05:25;;;;;;;12.95;8.63;;;0.70;98.30;;;;;;5051836;28;20033;-67
2021/01/30 03:07:56;;;;;;;18.42;9.85;;;0.70;98.20;;;;;;5065755;28;20028;-67
2021/01/30 03:10:44;;;;;;;19.23;10.90;;;0.80;98.20;;;;;;5052922;28;20025;-67
2021/01/30 03:13:22;;;;;;;16.77;9.27;;;0.80;98.20;;;;;;5068028;28;20043;-67
2021/01/30 03:15:58;;;;;;;19.08;10.35;;;0.80;98.00;;;;;;5059146;28;20036;-67
2021/01/30 03:18:34;;;;;;;15.52;8.85;;;0.90;98.00;;;;;;5060976;28;20033;-68
2021/01/30 03:21:08;;;;;;;17.30;9.98;;;0.90;98.00;;;;;;5060968;28;20138;-67
2021/01/30 03:23:35;;;;;;;15.57;9.32;;;0.90;98.10;;;;;;5066395;28;20017;-67
2021/01/30 03:26:04;;;;;;;18.75;10.50;;;0.90;98.20;;;;;;5060485;28;20086;-67
2021/01/30 03:28:30;;;;;;;13.57;8.52;;;0.80;98.00;;;;;;5068299;28;20021;-67
2021/01/30 03:30:55;;;;;;;14.18;9.65;;;0.90;98.00;;;;;;5058645;28;20077;-68
2021/01/30 03:33:21;;;;;;;17.42;9.57;;;0.90;97.90;;;;;;5047794;28;20476;-68
2021/01/30 03:35:46;;;;;;;15.52;8.98;;;0.90;97.80;;;;;;5060455;28;20016;-68
2021/01/30 03:38:12;;;;;;;19.30;9.57;;;0.90;97.80;;;;;;5072877;28;20024;-67
2021/01/30 03:40:39;;;;;;;16.33;9.18;;;1.00;97.90;;;;;;5054617;28;20473;-68
2021/01/30 03:43:05;;;;;;;15.00;8.10;;;1.00;97.90;;;;;;5053468;28;20032;-68
2021/01/30 03:45:32;;;;;;;16.52;8.50;;;1.00;97.70;;;;;;5054278;28;20124;-69
2021/01/30 03:47:59;;;;;;;13.30;9.00;;;1.00;97.70;;;;;;5054679;28;20056;-69
2021/01/30 03:50:25;;;;;;;15.15;8.27;;;1.00;97.80;;;;;;5054792;28;20033;-68
2021/01/30 03:52:52;;;;;;;18.00;9.52;;;1.00;97.90;;;;;;5054491;28;20040;-68
2021/01/30 03:55:18;;;;;;;16.85;8.73;;;1.00;97.80;;;;;;5048570;28;20168;-69
2021/01/30 03:57:44;;;;;;;17.23;8.70;;;1.10;97.80;;;;;;5033961;28;20045;-68
2021/01/30 04:00:13;;;;;;;15.50;8.60;;;1.10;98.00;;;;;;5049379;28;20132;-67
2021/01/30 04:02:39;;;;;;;15.70;8.30;;;1.10;97.70;;;;;;5054406;28;20037;-68
2021/01/30 04:05:06;;;;;;;12.00;7.68;;;1.20;97.70;;;;;;5056108;28;20087;-68
2021/01/30 04:07:32;;;;;;;15.25;8.68;;;1.20;97.70;;;;;;5054326;28;20033;-68
2021/01/30 04:09:57;;;;;;;12.68;8.05;;;1.20;97.70;;;;;;5054121;28;20078;-67
2021/01/30 04:12:23;;;;;;;14.82;7.95;;;1.20;97.70;;;;;;5065929;28;20028;-68
2021/01/30 04:14:48;;;;;;;13.85;7.50;;;1.30;97.60;;;;;;5058101;28;20020;-68
2021/01/30 04:17:13;;;;;;;15.35;8.38;;;1.30;97.50;;;;;;5054885;28;20025;-68
2021/01/30 04:19:39;;;;;;;14.48;8.77;;;1.40;97.50;;;;;;5052855;28;20025;-68
2021/01/30 04:22:05;;;;;;;14.93;9.82;;;1.40;97.40;;;;;;5061686;28;20437;-68
2021/01/30 04:24:31;;;;;;;14.02;8.32;;;1.40;97.60;;;;;;5053501;28;20031;-68
2021/01/30 04:26:57;;;;;;;18.80;9.25;;;1.40;97.60;;;;;;5059699;28;20029;-69
2021/01/30 04:29:22;;;;;;;16.02;9.63;;;1.40;97.60;;;;;;5050852;28;20029;-67
2021/01/30 04:31:57;;;;;;;19.90;9.00;;;1.50;97.50;;;;;;5059232;28;20092;-67
2021/01/30 04:34:23;;;;;;;15.90;9.70;;;1.50;97.50;;;;;;5063363;28;20143;-68
2021/01/30 04:36:49;;;;;;;16.75;9.43;;;1.50;97.50;;;;;;5053893;28;20025;-68
2021/01/30 04:39:14;;;;;;;17.75;9.93;;;1.60;97.50;;;;;;5051991;28;20029;-68
2021/01/30 04:42:04;;;;;;;16.33;10.25;;;1.60;97.60;;;;;;5059011;28;20502;-68
2021/01/30 04:44:46;;;;;;;16.45;9.75;;;1.50;97.70;;;;;;5053907;28;20090;-68
2021/01/30 04:47:39;;;;;;;16.88;9.98;;;1.50;97.70;;;;;;5052371;28;20028;-68
2021/01/30 04:50:28;;;;;;;16.05;9.38;;;1.50;97.60;;;;;;5049950;28;20083;-68
2021/01/30 04:53:03;;;;;;;18.27;9.65;;;1.60;97.60;;;;;;5049428;28;20473;-68
2021/01/30 04:55:50;;;;;;;17.17;9.63;;;1.60;97.50;;;;;;5052389;28;20067;-68
2021/01/30 04:58:44;;;;;;;16.42;9.15;;;1.60;97.50;;;;;;5051931;28;20033;-67
2021/01/30 05:01:18;;;;;;;21.25;11.07;;;1.60;97.50;;;;;;5065820;28;20040;-67
2021/01/30 05:04:05;;;;;;;19.10;10.85;;;1.60;97.60;;;;;;5066677;28;20029;-68
2021/01/30 05:06:41;;;;;;;20.23;11.45;;;1.60;97.60;;;;;;5064360;28;20047;-68
2021/01/30 05:09:15;;;;;;;21.52;11.20;;;1.70;97.50;;;;;;5057188;28;20024;-68
2021/01/30 05:11:46;;;;;;;25.92;12.18;;;1.70;97.50;;;;;;5053103;28;20048;-68
2021/01/30 05:14:16;;;;;;;20.55;10.82;;;1.70;97.50;;;;;;5056474;28;20040;-68
2021/01/30 05:17:01;;;;;;;19.25;10.20;;;1.80;97.50;;;;;;5053024;28;20016;-67
2021/01/30 05:19:35;;;;;;;21.58;11.95;;;1.80;97.50;;;;;;5054887;28;20029;-67
2021/01/30 05:22:02;;;;;;;19.95;10.77;;;1.80;97.50;;;;;;5072417;28;20040;-67
2021/01/30 05:24:29;;;;;;;21.17;11.18;;;1.70;97.40;;;;;;5056957;28;20096;-67
2021/01/30 05:27:12;;;;;;;21.52;11.65;;;1.80;97.40;;;;;;5052704;28;20507;-67
2021/01/30 05:30:09;;;;;;;21.90;11.27;;;1.80;97.30;;;;;;5052455;28;20020;-68
2021/01/30 05:32:38;;;;;;;23.83;11.55;;;1.80;97.20;;;;;;5052323;28;20408;-68
2021/01/30 05:35:27;;;;;;;20.95;11.63;;;1.80;97.10;;;;;;5050436;28;20017;-68
2021/01/30 05:38:05;;;;;;;24.63;12.85;;;1.80;97.10;;;;;;5052412;28;20503;-68
2021/01/30 05:40:47;;;;;;;24.73;12.73;;;1.80;97.20;;;;;;5047706;28;20033;-68
2021/01/30 05:43:27;;;;;;;24.83;12.77;;;1.80;97.20;;;;;;5034612;28;20623;-68
2021/01/30 05:45:59;;;;;;;25.00;13.48;;;1.80;97.30;;;;;;5050888;28;20032;-68
2021/01/30 05:48:30;;;;;;;24.90;12.75;;;1.70;97.30;;;;;;5055589;28;20478;-68
2021/01/30 05:51:05;;;;;;;24.67;12.18;;;1.80;97.40;;;;;;5032336;28;20025;-68
2021/01/30 05:53:31;;;;;;;23.77;12.40;;;1.80;97.40;;;;;;5052316;28;20386;-68
2021/01/30 05:55:57;;;;;;;23.30;11.90;;;1.80;97.40;;;;;;5050993;28;20049;-68
2021/01/30 05:58:24;;;;;;;20.83;11.43;;;1.80;97.30;;;;;;5055675;28;20043;-68
2021/01/30 06:00:50;;;;;;;26.30;12.82;;;1.80;97.40;;;;;;5051100;28;20500;-68
2021/01/30 06:03:22;;;;;;;23.70;11.80;;;1.80;97.40;;;;;;5056362;28;20032;-69
2021/01/30 06:05:52;;;;;;;26.45;12.88;;;1.90;97.30;;;;;;5050991;28;20033;-68
2021/01/30 06:08:17;;;;;;;23.02;11.25;;;1.80;97.30;;;;;;5051934;28;20635;-69
2021/01/30 06:10:44;;;;;;;28.23;13.57;;;1.90;97.40;;;;;;5051663;28;20029;-67
2021/01/30 06:13:20;;;;;;;26.02;13.43;;;1.90;97.40;;;;;;5063383;28;20041;-67
2021/01/30 06:15:49;;;;;;;29.27;14.48;;;1.90;97.50;;;;;;5050288;28;20057;-68
2021/01/30 06:18:26;;;;;;;23.73;13.15;;;1.90;97.50;;;;;;5063425;28;20484;-68
2021/01/30 06:20:57;;;;;;;31.95;14.20;;;1.90;97.40;;;;;;5049121;28;20504;-68
2021/01/30 06:23:23;;;;;;;27.17;13.90;;;1.90;97.40;;;;;;5051323;28;20434;-68
2021/01/30 06:25:48;;;;;;;25.77;14.85;;;1.90;97.40;;;;;;5051563;28;20041;-68
2021/01/30 06:28:25;;;;;;;31.60;15.95;;;1.90;97.40;;;;;;5070918;28;20020;-68
2021/01/30 06:30:52;;;;;;;29.33;13.93;;;1.90;97.40;;;;;;5049134;28;20031;-68
2021/01/30 06:33:41;;;;;;;27.80;14.82;;;1.90;97.50;;;;;;5069937;28;20530;-68
2021/01/30 06:36:15;;;;;;;31.40;13.90;;;1.90;97.50;;;;;;5059288;28;20029;-69
2021/01/30 06:38:51;;;;;;;30.02;14.02;;;1.90;97.50;;;;;;5067149;28;20064;-69
2021/01/30 06:41:30;;;;;;;26.90;14.07;;;1.90;97.60;;;;;;5061225;28;20036;-69
2021/01/30 06:44:10;;;;;;;29.98;15.07;;;1.90;97.60;;;;;;5064957;28;20127;-69
2021/01/30 06:47:10;;;;;;;26.00;12.20;;;1.90;97.60;;;;;;5063633;28;20047;-69
2021/01/30 06:49:40;;;;;;;26.45;13.73;;;1.90;97.50;;;;;;5054069;28;20020;-69
2021/01/30 06:52:09;;;;;;;24.50;12.73;;;1.90;97.50;;;;;;5070373;28;20111;-69
2021/01/30 06:54:34;;;;;;;25.10;13.07;;;1.90;97.50;;;;;;5060077;28;20039;-68
2021/01/30 06:57:14;;;;;;;30.52;13.05;;;1.90;97.40;;;;;;5050991;28;20045;-69
2021/01/30 06:59:54;;;;;;;21.17;11.13;;;1.80;97.40;;;;;;5053110;28;20020;-69
2021/01/30 07:02:32;;;;;;;27.63;11.60;;;1.80;97.40;;;;;;5071113;28;20048;-69
2021/01/30 07:05:29;;;;;;;22.83;11.05;;;1.80;97.40;;;;;;5055585;28;20029;-68
2021/01/30 07:08:20;;;;;;;22.20;11.55;;;1.90;97.40;;;;;;5050959;28;20025;-68
2021/01/30 07:11:24;;;;;;;18.90;10.63;;;1.90;97.30;;;;;;5049041;28;20086;-68
2021/01/30 07:14:08;;;;;;;21.25;10.70;;;1.90;97.60;;;;;;5053583;28;20040;-68
2021/01/30 07:16:54;;;;;;;25.42;11.20;;;2.00;97.50;;;;;;5053870;28;20053;-68
2021/01/30 07:19:50;;;;;;;21.60;10.23;;;2.00;97.10;;;;;;5058987;28;20040;-68
2021/01/30 07:22:28;;;;;;;;;;;2.00;97.10;;;;;;5036300;28;20128;-69
2021/01/30 07:25:07;;;;;;;14.27;8.43;;;2.00;97.20;;;;;;5047387;28;19909;-68
2021/01/30 07:27:38;;;;;;;19.27;9.52;;;2.00;97.10;;;;;;5055172;28;20025;-68
2021/01/30 07:30:13;;;;;;;17.45;9.27;;;1.90;97.00;;;;;;5058010;28;20177;-66
2021/01/30 07:32:47;;;;;;;17.25;9.05;;;2.00;97.00;;;;;;5054819;28;20050;-66
2021/01/30 07:35:25;;;;;;;12.30;6.55;;;2.00;97.00;;;;;;5049299;28;20033;-66
2021/01/30 07:38:10;;;;;;;11.90;6.75;;;2.00;96.90;;;;;;5072264;28;20068;-67
2021/01/30 07:40:46;;;;;;;;;;;2.00;96.90;;;;;;5054733;28;20477;-67
2021/01/30 07:43:21;;;;;;;15.38;8.07;;;2.00;96.80;;;;;;5065301;28;19944;-67
2021/01/30 07:46:05;;;;;;;;;;;2.00;96.80;;;;;;5055318;28;20481;-66
2021/01/30 07:48:34;;;;;;;14.05;7.72;;;2.00;96.80;;;;;;5054793;28;19913;-66
2021/01/30 07:51:08;;;;;;;17.02;7.82;;;2.10;96.70;;;;;;5054111;28;20363;-68
2021/01/30 07:53:33;;;;;;;14.30;8.20;;;2.10;96.80;;;;;;5054723;28;20096;-66
2021/01/30 07:56:44;;;;;;;14.35;7.80;;;2.10;96.90;;;;;;5050718;28;20162;-69
2021/01/30 07:59:21;;;;;;;13.52;7.90;;;2.20;96.80;;;;;;5053491;28;20037;-67
2021/01/30 08:02:29;;;;;;;12.68;7.20;;;2.20;96.70;;;;;;5052865;28;20280;-66
2021/01/30 08:05:21;;;;;;;11.43;7.28;;;2.30;96.70;;;;;;5053398;28;20037;-67
2021/01/30 08:08:11;;;;;;;13.88;7.40;;;2.40;96.60;;;;;;5054085;28;20100;-67
2021/01/30 08:11:12;;;;;;;12.02;7.13;;;2.40;96.50;;;;;;5052824;28;20111;-68
2021/01/30 08:14:00;;;;;;;10.73;6.53;;;2.40;96.40;;;;;;5051595;28;20115;-67
2021/01/30 08:16:34;;;;;;;12.48;6.25;;;2.40;96.40;;;;;;5054203;28;20040;-68
2021/01/30 08:19:05;;;;;;;10.45;6.07;;;2.50;96.40;;;;;;5052909;28;20021;-68
2021/01/30 08:21:42;;;;;;;10.32;6.07;;;2.50;96.20;;;;;;5050758;28;20047;-68
2021/01/30 08:24:21;;;;;;;11.18;6.93;;;2.50;96.10;;;;;;5051695;28;20021;-68
2021/01/30 08:26:58;;;;;;;12.02;7.05;;;2.60;96.30;;;;;;5053266;28;20037;-68
2021/01/30 08:29:32;;;;;;;12.00;7.00;;;2.60;96.10;;;;;;5055183;28;20140;-68
2021/01/30 08:32:18;;;;;;;14.10;7.50;;;2.60;96.10;;;;;;5052744;28;20051;-69
2021/01/30 08:34:44;;;;;;;12.32;7.15;;;2.60;96.30;;;;;;5051120;28;20549;-68
2021/01/30 08:37:13;;;;;;;12.43;6.78;;;2.60;96.30;;;;;;5052798;28;20128;-68
2021/01/30 08:39:58;;;;;;;13.80;7.80;;;2.60;96.40;;;;;;5058798;28;20027;-69
2021/01/30 08:42:24;;;;;;;;;;;2.70;96.40;;;;;;5051251;28;20091;-69
2021/01/30 08:44:56;;;;;;;11.73;7.05;;;2.80;96.40;;;;;;5052024;28;19916;-69
2021/01/30 08:47:31;;;;;;;14.57;8.38;;;2.80;96.60;;;;;;5051437;28;20094;-69
2021/01/30 08:50:02;;;;;;;16.15;8.65;;;2.90;96.40;;;;;;5052792;28;20025;-69
2021/01/30 08:52:52;;;;;;;14.68;8.82;;;3.00;96.50;;;;;;5049235;28;20044;-68
2021/01/30 08:55:33;;;;;;;16.10;9.35;;;3.10;96.30;;;;;;5051895;28;20025;-68
2021/01/30 08:57:59;;;;;;;13.27;7.93;;;3.10;96.60;;;;;;5059159;28;20040;-69
2021/01/30 09:00:45;;;;;;;14.35;8.68;;;3.20;96.50;;;;;;5050710;28;20054;-69
2021/01/30 09:03:48;;;;;;;13.75;7.07;;;3.20;96.30;;;;;;5051265;28;20425;-69
2021/01/30 09:06:39;;;;;;;14.32;8.82;;;3.30;96.00;;;;;;5044871;28;20056;-69
2021/01/30 09:09:26;;;;;;;14.48;8.65;;;3.30;96.10;;;;;;5052481;28;20404;-69
2021/01/30 09:11:56;;;;;;;14.38;8.35;;;3.30;95.90;;;;;;5051757;28;20033;-69
2021/01/30 09:14:21;;;;;;;11.63;7.50;;;3.30;95.90;;;;;;5048674;28;20451;-70
2021/01/30 09:17:01;;;;;;;12.20;7.72;;;3.40;95.90;;;;;;5051910;28;20029;-68
2021/01/30 09:19:27;;;;;;;10.93;7.00;;;3.40;96.10;;;;;;5043584;28;20087;-67
2021/01/30 09:22:04;;;;;;;12.40;7.78;;;3.40;95.80;;;;;;5032863;28;20037;-69
2021/01/30 09:24:50;;;;;;;13.43;7.75;;;3.40;95.90;;;;;;5049861;28;20033;-68
2021/01/30 09:27:23;;;;;;;13.10;7.47;;;3.50;95.90;;;;;;5052683;28;20037;-67
2021/01/30 09:29:50;;;;;;;9.18;6.20;;;3.50;95.90;;;;;;5044250;28;20033;-68
2021/01/30 09:32:30;;;;;;;12.38;7.28;;;3.60;96.00;;;;;;5046902;28;20071;-68
2021/01/30 09:35:05;;;;;;;11.35;7.10;;;3.70;95.90;;;;;;5049428;28;20481;-66
2021/01/30 09:37:33;;;;;;;11.50;7.10;;;3.80;95.90;;;;;;5041775;28;20030;-66
2021/01/30 09:40:00;;;;;;;11.82;7.20;;;3.90;95.90;;;;;;5055373;28;20037;-68
2021/01/30 09:42:27;;;;;;;12.90;7.35;;;3.90;95.90;;;;;;5049914;28;20033;-67
2021/01/30 09:45:01;;;;;;;11.38;6.70;;;4.00;95.90;;;;;;5060831;28;20024;-68
2021/01/30 09:47:27;;;;;;;13.20;6.72;;;4.00;95.80;;;;;;5061134;28;20091;-68
2021/01/30 09:50:00;;;;;;;11.20;6.60;;;4.10;95.80;;;;;;5052642;28;20025;-68
2021/01/30 09:52:26;;;;;;;10.02;6.10;;;4.10;95.30;;;;;;5050974;28;20102;-68
2021/01/30 09:55:01;;;;;;;10.02;6.60;;;4.00;94.30;;;;;;5050080;28;20481;-67
2021/01/30 09:57:28;;;;;;;9.15;6.15;;;4.00;94.90;;;;;;5049682;28;20044;-67
2021/01/30 09:59:59;;;;;;;8.95;5.80;;;3.90;95.00;;;;;;5048092;28;20504;-68
2021/01/30 10:02:27;;;;;;;10.00;6.00;;;4.00;95.10;;;;;;5051928;28;20064;-68
2021/01/30 10:05:10;;;;;;;11.48;7.00;;;4.00;95.00;;;;;;5049982;28;20036;-68
2021/01/30 10:07:36;;;;;;;9.68;5.53;;;4.00;94.90;;;;;;5050973;28;20029;-68
2021/01/30 10:10:19;;;;;;;9.05;5.35;;;4.00;94.80;;;;;;5050007;28;20041;-68
2021/01/30 10:12:45;;;;;;;6.65;4.78;;;4.10;94.90;;;;;;5049126;28;20121;-68
2021/01/30 10:15:11;;;;;;;7.82;5.18;;;4.10;94.70;;;;;;5050191;28;20124;-69
2021/01/30 10:17:41;;;;;;;9.23;5.95;;;4.10;94.50;;;;;;5050127;28;20276;-68
2021/01/30 10:20:11;;;;;;;8.20;5.03;;;4.20;94.60;;;;;;5050361;28;20042;-68
2021/01/30 10:22:48;;;;;;;9.10;5.38;;;4.20;94.50;;;;;;5036786;28;20037;-68
2021/01/30 10:25:19;;;;;;;8.45;5.32;;;4.20;94.40;;;;;;5044924;28;20040;-68
2021/01/30 10:27:44;;;;;;;8.70;5.55;;;4.20;94.40;;;;;;5051411;28;20488;-69
2021/01/30 10:30:15;;;;;;;8.20;4.95;;;4.30;94.20;;;;;;5049686;28;20028;-68
2021/01/30 10:32:49;;;;;;;8.52;5.22;;;4.40;94.50;;;;;;5039351;28;20128;-68
2021/01/30 10:35:22;;;;;;;8.55;5.80;;;4.40;94.50;;;;;;5051051;28;20076;-68
2021/01/30 10:37:59;;;;;;;8.95;5.65;;;4.50;94.10;;;;;;5048986;28;20048;-69
2021/01/30 10:40:33;;;;;;;9.23;5.75;;;4.50;93.90;;;;;;5049402;28;20032;-68
2021/01/30 10:43:01;;;;;;;6.82;5.18;;;4.60;94.00;;;;;;5048117;28;20053;-68
2021/01/30 10:45:29;;;;;;;10.02;5.70;;;4.50;93.70;;;;;;5050477;28;20028;-68
2021/01/30 10:48:05;;;;;;;8.38;5.25;;;4.50;93.40;;;;;;5050362;28;20025;-68
2021/01/30 10:50:58;;;;;;;9.23;4.90;;;4.50;93.40;;;;;;5049793;28;20028;-69
2021/01/30 10:53:34;;;;;;;7.57;4.68;;;4.60;93.40;;;;;;5048369;28;20112;-69
2021/01/30 10:56:13;;;;;;;9.65;5.35;;;4.50;92.70;;;;;;5049144;28;20155;-68
2021/01/30 10:58:38;;;;;;;6.57;4.25;;;4.40;92.70;;;;;;5043435;28;20061;-68
2021/01/30 11:01:11;;;;;;;5.97;3.75;;;4.40;92.40;;;;;;5038760;28;20720;-68
2021/01/30 11:03:48;;;;;;;7.18;3.88;;;4.40;92.20;;;;;;5048341;28;20048;-68
2021/01/30 11:06:41;;;;;;;6.28;3.60;;;4.40;92.20;;;;;;5033480;28;20029;-68
2021/01/30 11:09:24;;;;;;;6.10;4.00;;;4.30;91.80;;;;;;5048207;28;20115;-68
2021/01/30 11:12:14;;;;;;;6.60;4.00;;;4.30;92.00;;;;;;5045392;28;20112;-68
2021/01/30 11:14:40;;;;;;;7.13;4.03;;;4.30;91.80;;;;;;5047140;28;20036;-68
2021/01/30 11:17:25;;;;;;;7.07;3.75;;;4.20;92.10;;;;;;5046072;28;20114;-68
2021/01/30 11:19:50;;;;;;;6.22;3.97;;;4.20;91.70;;;;;;5052431;28;20116;-68
2021/01/30 11:22:22;;;;;;;7.07;3.83;;;4.20;91.50;;;;;;5049265;28;20124;-68
2021/01/30 11:24:50;;;;;;;5.85;3.95;;;4.10;91.60;;;;;;5048878;28;20139;-68
2021/01/30 11:27:29;;;;;;;6.70;3.55;;;4.10;91.00;;;;;;5047605;28;20681;-69
2021/01/30 11:29:54;;;;;;;5.63;3.28;;;4.00;90.90;;;;;;5048677;28;20036;-69
2021/01/30 11:32:22;;;;;;;9.23;4.25;;;3.80;90.40;;;;;;5049717;28;20033;-67
2021/01/30 11:34:53;;;;;;;6.55;4.15;;;3.80;90.70;;;;;;5047614;28;20499;-68
2021/01/30 11:37:19;;;;;;;5.25;3.20;;;3.80;91.30;;;;;;5050466;28;20420;-69
2021/01/30 11:39:44;;;;;;;4.50;2.70;;;3.80;91.30;;;;;;5048344;28;20032;-69
2021/01/30 11:42:10;;;;;;;4.88;2.85;;;3.80;91.30;;;;;;5047218;28;20045;-69
2021/01/30 11:44:35;;;;;;;4.13;2.72;;;3.80;90.20;;;;;;5049894;28;20025;-69
2021/01/30 11:47:01;;;;;;;5.40;3.40;;;3.70;90.60;;;;;;5049415;28;20029;-69
2021/01/30 11:49:27;;;;;;;4.30;2.83;;;3.70;90.90;;;;;;5048671;28;20029;-69
2021/01/30 11:51:52;;;;;;;6.00;3.42;;;3.70;90.90;;;;;;5047272;28;20033;-69
2021/01/30 11:54:18;;;;;;;5.72;3.30;;;3.70;90.90;;;;;;5058590;28;20021;-68
2021/01/30 11:56:44;;;;;;;5.55;2.95;;;3.80;91.20;;;;;;5049610;28;20053;-69
2021/01/30 11:59:12;;;;;;;4.80;2.70;;;3.90;91.10;;;;;;5045735;28;20358;-68
2021/01/30 12:01:38;;;;;;;5.60;3.42;;;3.90;91.00;;;;;;5053211;28;20515;-69
2021/01/30 12:04:04;;;;;;;5.65;3.05;;;3.90;90.80;;;;;;5052997;28;20029;-67
2021/01/30 12:06:29;;;;;;;4.63;3.20;;;3.90;90.60;;;;;;5053348;28;20112;-66
2021/01/30 12:08:54;;;;;;;5.88;3.17;;;3.90;90.80;;;;;;5051170;28;20024;-67
2021/01/30 12:11:21;;;;;;;4.97;3.15;;;4.00;90.90;;;;;;5046170;28;20092;-67
2021/01/30 12:13:46;;;;;;;5.90;3.30;;;4.00;90.80;;;;;;5051330;28;20028;-67
2021/01/30 12:16:13;;;;;;;5.05;3.15;;;4.10;90.80;;;;;;5050828;28;20029;-68
2021/01/30 12:18:39;;;;;;;5.80;3.03;;;4.10;90.50;;;;;;5048330;28;20366;-68
2021/01/30 12:21:05;;;;;;;4.88;2.83;;;4.10;90.60;;;;;;5052018;28;20037;-68
2021/01/30 12:23:31;;;;;;;5.40;3.10;;;4.10;90.40;;;;;;5051541;28;20040;-69
2021/01/30 12:25:57;;;;;;;4.45;2.60;;;4.10;90.30;;;;;;5053695;28;20359;-68
2021/01/30 12:28:27;;;;;;;6.00;2.70;;;4.20;90.50;;;;;;5051990;28;20026;-69
2021/01/30 12:30:53;;;;;;;4.95;3.05;;;4.30;90.50;;;;;;5051044;28;20037;-67
2021/01/30 12:33:18;;;;;;;5.82;2.97;;;4.30;90.50;;;;;;5051193;28;20757;-68
2021/01/30 12:35:44;;;;;;;6.53;3.25;;;4.40;90.00;;;;;;5051241;28;20040;-68
2021/01/30 12:38:10;;;;;;;5.28;3.10;;;4.50;90.40;;;;;;5053486;28;20405;-68
2021/01/30 12:40:39;;;;;;;5.47;3.22;;;4.60;90.40;;;;;;5051139;28;20385;-67
2021/01/30 12:43:05;;;;;;;3.95;2.70;;;4.70;90.30;;;;;;5057305;28;20042;-68
2021/01/30 12:45:31;;;;;;;5.72;3.10;;;4.70;90.00;;;;;;5051305;28;20033;-69
2021/01/30 12:47:57;;;;;;;5.15;3.53;;;4.80;90.20;;;;;;5047031;28;20073;-69
2021/01/30 12:50:25;;;;;;;4.75;2.83;;;4.80;89.70;;;;;;5051371;28;20040;-69
2021/01/30 12:52:50;;;;;;;5.10;3.13;;;4.80;89.20;;;;;;5051118;28;20036;-69
2021/01/30 12:55:16;;;;;;;5.82;3.33;;;4.70;86.60;;;;;;5053127;28;20029;-68
2021/01/30 12:57:42;;;;;;;5.28;2.80;;;4.60;87.20;;;;;;5051390;28;20432;-68
2021/01/30 13:00:12;;;;;;;3.97;2.65;;;4.50;85.60;;;;;;5050270;28;20027;-68
2021/01/30 13:02:37;;;;;;;5.57;2.92;;;4.30;86.00;;;;;;5051749;28;20148;-68
2021/01/30 13:05:05;;;;;;;5.55;3.40;;;4.30;87.00;;;;;;5051259;28;20043;-68
2021/01/30 13:07:30;;;;;;;8.35;3.33;;;4.30;87.40;;;;;;5052677;28;20102;-68
2021/01/30 13:09:56;;;;;;;5.00;3.53;;;4.30;86.00;;;;;;5048911;28;20551;-68
2021/01/30 13:12:21;;;;;;;5.93;2.85;;;4.20;85.80;;;;;;5051786;28;20033;-68
2021/01/30 13:14:46;;;;;;;4.97;3.17;;;4.20;85.70;;;;;;5050608;28;20127;-70
2021/01/30 13:17:12;;;;;;;4.45;2.90;;;4.20;85.60;;;;;;5070559;28;20503;-69